Reklama

Seznam meteostanic a jejich METAR

Vyhledat místa podle abecedy:
A B C D E F G H I J K L M N O P Q R S T U V W X Y Z

Filtrovat:

ID stanice:
a/nebo
Název místa (fulltext):
 
Místo (ID)Naposledy načteno 
Wake Island (PWAK) 15.11.2018 12:58 UTC Zobrazit METAR
PWAK 151258Z AUTO 09007KT 9999 CLR 27/23 A2995 RMK AO2 SLP148
Warsaw (EPWA) 15.11.2018 13:00 UTC Zobrazit METAR
EPWA 151300Z 03007KT 360V060 9999 FEW017 SCT046 10/06 Q1032 NOSIG
Washington (KIAD) 15.11.2018 12:52 UTC Zobrazit METAR
KIAD 151252Z 05006KT 2SM -SN BR SCT007 BKN020 OVC028 M01/M01 A3044 RMK AO2 SLP309 P0009 T10061011
Wellington (NZWN) 15.11.2018 13:00 UTC Zobrazit METAR
NZWN 151300Z AUTO 36018G30KT 9999 FEW018/// 15/13 Q1021 NOSIG
Windhoek (FYWH) 15.11.2018 12:00 UTC Zobrazit METAR
FYWH 151200Z 12007KT CAVOK 33/M04 Q1022 NOSIG
Wroclaw (EPWR) 15.11.2018 13:00 UTC Zobrazit METAR
EPWR 151300Z 12006KT 9999 FEW008 08/05 Q1032
Reklama

Počasí na Váš email

Emaily jsou bez reklamy a bez spamu



Odhlásit newsletter

Reklama


Lunární kalendář

  • 23.11.
  • 30.11.
  • 07.12.
  • 15.12.



Reklama


Reklama
Povinné ručení
Reklama



Reklama